createdAt,value
2018-12-30T00:00:58.665Z,25.60
2018-12-30T00:01:59.326Z,24.90
2018-12-30T00:02:59.348Z,25.50
2018-12-30T00:04:00.768Z,24.30
2018-12-30T00:04:59.804Z,24.60
2018-12-30T00:05:59.309Z,25.00
2018-12-30T00:07:00.304Z,23.80
2018-12-30T00:08:00.313Z,23.10
2018-12-30T00:09:02.304Z,23.10
2018-12-30T00:09:58.946Z,24.00
2018-12-30T00:11:00.808Z,23.10
2018-12-30T00:12:01.122Z,23.40
2018-12-30T00:13:03.264Z,22.40
2018-12-30T00:14:00.653Z,21.60
2018-12-30T00:15:15.310Z,21.20
2018-12-30T00:15:59.901Z,21.70
2018-12-30T00:17:01.810Z,20.50
2018-12-30T00:18:01.305Z,21.80
2018-12-30T00:19:02.359Z,20.40
2018-12-30T00:20:02.315Z,20.70
2018-12-30T00:21:08.780Z,21.10
2018-12-30T00:22:04.814Z,20.20
2018-12-30T00:23:01.123Z,20.00
2018-12-30T00:24:09.329Z,19.30
2018-12-30T00:25:01.559Z,21.20
2018-12-30T00:26:01.692Z,19.40
2018-12-30T00:27:01.907Z,19.30
2018-12-30T00:28:02.117Z,19.20
2018-12-30T00:29:03.829Z,19.70
2018-12-30T00:30:06.305Z,20.10
2018-12-30T00:31:04.312Z,18.60
2018-12-30T00:32:09.829Z,18.50
2018-12-30T00:33:03.031Z,18.50
2018-12-30T00:34:03.566Z,20.70
2018-12-30T00:35:07.305Z,17.60
2018-12-30T00:36:06.321Z,19.30
2018-12-30T00:37:05.343Z,17.20
2018-12-30T00:38:03.883Z,19.30
2018-12-30T00:39:04.082Z,17.10
2018-12-30T00:40:05.828Z,17.90
2018-12-30T00:41:04.419Z,18.30
2018-12-30T00:42:06.314Z,16.60
2018-12-30T00:43:08.311Z,15.80
2018-12-30T00:44:07.080Z,17.80
2018-12-30T00:45:06.811Z,17.10
2018-12-30T00:46:06.815Z,17.20
2018-12-30T00:47:21.346Z,17.10
2018-12-30T00:48:21.323Z,15.30
2018-12-30T00:49:07.308Z,16.30
2018-12-30T00:50:13.806Z,16.50
2018-12-30T00:51:06.048Z,14.30
2018-12-30T00:52:07.835Z,14.60
2018-12-30T00:53:06.278Z,15.60
2018-12-30T00:54:06.510Z,15.10
2018-12-30T00:55:14.305Z,13.80
2018-12-30T00:56:08.837Z,15.90
2018-12-30T00:57:11.758Z,13.10
2018-12-30T00:58:07.255Z,11.60
2018-12-30T00:59:08.379Z,10.50
2018-12-30T01:00:07.588Z,11.70
2018-12-30T01:01:09.322Z,13.60
2018-12-30T01:02:09.808Z,11.10
2018-12-30T01:03:08.078Z,10.10
2018-12-30T01:04:11.832Z,11.50
2018-12-30T01:05:12.307Z,10.80
2018-12-30T01:06:09.633Z,11.60
2018-12-30T01:07:08.839Z,12.70
2018-12-30T01:08:12.813Z,11.50
2018-12-30T01:09:13.836Z,12.00
2018-12-30T01:10:09.437Z,12.90
2018-12-30T01:11:11.322Z,11.70
2018-12-30T01:12:10.852Z,12.10
2018-12-30T01:13:10.936Z,12.30
2018-12-30T01:14:11.813Z,11.80
2018-12-30T01:15:10.153Z,10.10
2018-12-30T01:16:10.396Z,7.80
2018-12-30T01:17:12.326Z,7.50
2018-12-30T01:18:10.652Z,7.10
2018-12-30T01:19:10.861Z,7.10
2018-12-30T01:20:12.804Z,5.00
2018-12-30T01:21:11.257Z,6.00
2018-12-30T01:22:13.305Z,6.10
2018-12-30T01:23:11.640Z,7.20
2018-12-30T01:24:13.820Z,4.70
2018-12-30T01:25:12.080Z,4.70
2018-12-30T01:26:12.823Z,3.90
2018-12-30T01:27:13.365Z,3.30
2018-12-30T01:28:16.325Z,4.30
2018-12-30T01:29:14.334Z,3.40
2018-12-30T01:30:12.891Z,2.90
2018-12-30T01:31:14.811Z,2.80
2018-12-30T01:32:14.806Z,2.50
2018-12-30T01:33:13.455Z,3.00
2018-12-30T01:34:15.323Z,3.80
2018-12-30T01:35:15.337Z,3.10
2018-12-30T01:36:13.909Z,2.60
2018-12-30T01:37:15.815Z,3.00
2018-12-30T01:38:17.848Z,3.20
2018-12-30T01:39:14.378Z,2.60
2018-12-30T01:40:18.308Z,3.70
2018-12-30T01:41:18.318Z,2.10
2018-12-30T01:42:15.895Z,1.90
2018-12-30T01:43:18.811Z,2.70
2018-12-30T01:44:15.255Z,2.50
2018-12-30T01:45:17.265Z,2.40
2018-12-30T01:46:17.307Z,2.60
2018-12-30T01:47:16.794Z,2.20
2018-12-30T01:48:17.822Z,2.10
2018-12-30T01:49:16.027Z,2.20
2018-12-30T01:50:17.248Z,2.80
2018-12-30T01:51:16.500Z,1.80
2018-12-30T01:52:18.310Z,2.40
2018-12-30T01:53:16.884Z,1.80
2018-12-30T01:54:17.126Z,2.30
2018-12-30T01:55:17.312Z,2.10
2018-12-30T01:56:17.519Z,2.20
2018-12-30T01:57:17.723Z,2.20
2018-12-30T01:58:18.932Z,2.00
2018-12-30T01:59:21.834Z,2.30
2018-12-30T02:00:19.806Z,1.60
2018-12-30T02:01:20.319Z,2.80
2018-12-30T02:02:20.312Z,1.50
2018-12-30T02:03:20.377Z,1.70
2018-12-30T02:04:18.895Z,1.90
2018-12-30T02:05:19.121Z,1.80
2018-12-30T02:06:19.315Z,1.70
2018-12-30T02:07:19.538Z,1.10
2018-12-30T02:08:21.308Z,2.10
2018-12-30T02:09:21.809Z,1.90
2018-12-30T02:10:21.804Z,1.60
2018-12-30T02:11:21.816Z,1.70
2018-12-30T02:12:22.819Z,2.90
2018-12-30T02:13:20.469Z,2.00
2018-12-30T02:14:22.311Z,2.10
2018-12-30T02:15:20.772Z,1.70
2018-12-30T02:16:21.769Z,1.20
2018-12-30T02:17:21.110Z,0.90
2018-12-30T02:18:23.864Z,1.50
2018-12-30T02:19:28.384Z,2.20
2018-12-30T02:20:23.321Z,0.70
2018-12-30T02:21:25.310Z,1.10
2018-12-30T02:22:22.005Z,1.80
2018-12-30T02:23:25.829Z,1.50
2018-12-30T02:24:22.413Z,1.90
2018-12-30T02:25:22.603Z,1.20
2018-12-30T02:26:26.807Z,1.30
2018-12-30T02:27:23.021Z,1.40
2018-12-30T02:28:24.816Z,2.20
2018-12-30T02:29:25.351Z,1.70
2018-12-30T02:30:27.310Z,1.10
2018-12-30T02:31:25.306Z,1.50
2018-12-30T02:32:24.901Z,2.00
2018-12-30T02:33:24.115Z,1.60
2018-12-30T02:34:24.325Z,1.30
2018-12-30T02:35:26.317Z,1.20
2018-12-30T02:36:28.335Z,1.70
2018-12-30T02:37:26.325Z,1.50
2018-12-30T02:38:31.814Z,1.30
2018-12-30T02:39:26.317Z,1.50
2018-12-30T02:40:29.320Z,2.70
2018-12-30T02:41:41.336Z,3.10
2018-12-30T02:42:25.790Z,1.20
2018-12-30T02:43:27.859Z,1.30
2018-12-30T02:44:27.361Z,1.70
2018-12-30T02:45:28.343Z,1.40
2018-12-30T02:46:28.336Z,1.20
2018-12-30T02:47:27.661Z,1.00
2018-12-30T02:48:26.891Z,4.00
2018-12-30T02:49:30.808Z,1.50
2018-12-30T02:50:27.262Z,1.00
2018-12-30T02:51:27.503Z,1.40
2018-12-30T02:52:27.634Z,1.90
2018-12-30T02:53:27.809Z,2.30
2018-12-30T02:54:28.016Z,1.20
2018-12-30T02:55:29.812Z,1.70
2018-12-30T02:56:28.401Z,1.40
2018-12-30T02:57:30.439Z,2.10
2018-12-30T02:58:36.320Z,2.80
2018-12-30T02:59:28.920Z,1.70
2018-12-30T03:00:29.020Z,1.40
2018-12-30T03:01:30.830Z,1.90
2018-12-30T03:02:30.396Z,1.70
2018-12-30T03:03:31.383Z,1.60
2018-12-30T03:04:30.762Z,1.30
2018-12-30T03:05:32.862Z,1.70
2018-12-30T03:06:31.817Z,1.20
2018-12-30T03:07:31.828Z,1.20
2018-12-30T03:08:30.432Z,1.80
2018-12-30T03:09:32.309Z,1.30
2018-12-30T03:10:31.765Z,1.40
2018-12-30T03:11:31.984Z,2.20
2018-12-30T03:12:33.847Z,2.00
2018-12-30T03:13:31.342Z,1.70
2018-12-30T03:14:31.478Z,1.70
2018-12-30T03:15:33.320Z,2.30
2018-12-30T03:16:33.391Z,1.70
2018-12-30T03:17:33.813Z,1.60
2018-12-30T03:18:43.060Z,2.70
2018-12-30T03:19:32.279Z,1.90
2018-12-30T03:20:32.488Z,2.00
2018-12-30T03:21:36.312Z,2.00
2018-12-30T03:22:34.811Z,1.80
2018-12-30T03:23:35.837Z,3.30
2018-12-30T03:24:33.183Z,2.10
2018-12-30T03:25:35.307Z,2.30
2018-12-30T03:26:33.506Z,2.80
2018-12-30T03:27:33.744Z,3.00
2018-12-30T03:28:33.826Z,2.40
2018-12-30T03:29:35.811Z,2.40
2018-12-30T03:30:37.845Z,3.30
2018-12-30T03:31:36.348Z,2.40
2018-12-30T03:32:36.322Z,3.40
2018-12-30T03:33:36.762Z,3.80
2018-12-30T03:34:34.983Z,2.70
2018-12-30T03:35:36.851Z,2.20
2018-12-30T03:36:36.815Z,2.80
2018-12-30T03:37:36.528Z,3.70
2018-12-30T03:38:35.761Z,3.70
2018-12-30T03:39:37.821Z,3.70
2018-12-30T03:40:36.079Z,3.50
2018-12-30T03:41:36.219Z,4.00
2018-12-30T03:42:37.517Z,3.90
2018-12-30T03:43:36.707Z,3.00
2018-12-30T03:44:37.798Z,3.80
2018-12-30T03:45:36.996Z,4.00
2018-12-30T03:46:37.226Z,3.70
2018-12-30T03:47:45.343Z,4.30
2018-12-30T03:48:37.644Z,5.10
2018-12-30T03:49:37.909Z,4.50
2018-12-30T03:50:38.063Z,4.00
2018-12-30T03:51:53.819Z,6.00
2018-12-30T03:52:38.395Z,2.90
2018-12-30T03:53:38.615Z,3.40
2018-12-30T03:54:38.818Z,5.40
2018-12-30T03:55:40.811Z,5.90
2018-12-30T03:56:39.191Z,3.90
2018-12-30T03:57:39.348Z,5.00
2018-12-30T03:58:39.555Z,5.60
2018-12-30T03:59:39.795Z,6.20
2018-12-30T04:00:41.818Z,7.30
2018-12-30T04:01:40.023Z,5.30
2018-12-30T04:02:46.815Z,5.70
2018-12-30T04:03:48.356Z,4.90
2018-12-30T04:04:47.341Z,6.90
2018-12-30T04:05:44.419Z,4.00
2018-12-30T04:06:42.205Z,7.10
2018-12-30T04:07:40.913Z,5.80
2018-12-30T04:08:42.813Z,6.60
2018-12-30T04:09:42.816Z,5.80
2018-12-30T04:10:49.364Z,5.70
2018-12-30T04:11:47.349Z,5.00
2018-12-30T04:12:43.004Z,5.90
2018-12-30T04:13:41.977Z,7.20
2018-12-30T04:14:42.192Z,7.50
2018-12-30T04:15:44.316Z,7.30
2018-12-30T04:16:45.313Z,5.90
2018-12-30T04:17:42.720Z,8.10
2018-12-30T04:18:42.948Z,6.50
2018-12-30T04:19:43.101Z,6.50
2018-12-30T04:20:46.837Z,7.50
2018-12-30T04:21:45.313Z,6.60
2018-12-30T04:22:45.326Z,7.90
2018-12-30T04:23:45.334Z,8.90
2018-12-30T04:24:44.927Z,10.50
2018-12-30T04:25:45.827Z,7.10
2018-12-30T04:26:45.848Z,7.90
2018-12-30T04:27:44.494Z,7.80
2018-12-30T04:28:46.359Z,8.30
2018-12-30T04:29:44.839Z,9.20
2018-12-30T04:30:46.819Z,9.50
2018-12-30T04:31:48.814Z,7.00
2018-12-30T04:32:46.815Z,7.30
2018-12-30T04:33:53.312Z,8.60
2018-12-30T04:34:45.562Z,7.50
2018-12-30T04:35:47.314Z,9.80
2018-12-30T04:36:47.813Z,9.60
2018-12-30T04:37:46.025Z,8.80
2018-12-30T04:38:47.811Z,10.30
2018-12-30T04:39:48.369Z,12.20
2018-12-30T04:40:49.328Z,9.80
2018-12-30T04:41:46.675Z,9.80
2018-12-30T04:42:46.879Z,9.80
2018-12-30T04:43:48.825Z,10.40
2018-12-30T04:44:48.842Z,8.30
2018-12-30T04:45:47.426Z,10.00
2018-12-30T04:46:47.660Z,10.60
2018-12-30T04:47:49.312Z,11.30
2018-12-30T04:48:51.812Z,11.20
2018-12-30T04:49:49.812Z,9.70
2018-12-30T04:50:49.817Z,11.30
2018-12-30T04:51:48.343Z,8.00
2018-12-30T04:52:52.322Z,8.80
2018-12-30T04:53:56.319Z,9.30
2018-12-30T04:54:49.765Z,10.10
2018-12-30T04:55:50.522Z,10.90
2018-12-30T04:56:51.870Z,10.40
2018-12-30T04:57:49.301Z,10.60
2018-12-30T04:59:01.332Z,11.90
2018-12-30T04:59:49.665Z,10.20
2018-12-30T05:00:51.826Z,10.80
2018-12-30T05:01:50.039Z,11.10
2018-12-30T05:02:50.241Z,8.60
2018-12-30T05:03:50.446Z,9.00
2018-12-30T05:04:50.641Z,12.00
2018-12-30T05:05:50.889Z,10.70
2018-12-30T05:06:52.119Z,10.90
2018-12-30T05:07:51.359Z,11.20
2018-12-30T05:08:51.444Z,10.30
2018-12-30T05:09:53.315Z,10.30
2018-12-30T05:10:51.850Z,10.90
2018-12-30T05:11:53.815Z,11.40
2018-12-30T05:12:52.304Z,13.20
2018-12-30T05:13:54.343Z,11.60
2018-12-30T05:14:52.556Z,10.00
2018-12-30T05:15:52.689Z,11.70
2018-12-30T05:16:54.818Z,9.30
2018-12-30T05:17:54.815Z,8.70
2018-12-30T05:18:53.160Z,10.50
2018-12-30T05:19:57.313Z,11.50
2018-12-30T05:20:54.567Z,10.10
2018-12-30T05:21:53.725Z,8.30
2018-12-30T05:22:53.959Z,10.30
2018-12-30T05:23:56.877Z,10.30
2018-12-30T05:24:54.192Z,12.60
2018-12-30T05:25:54.395Z,11.40
2018-12-30T05:26:54.600Z,10.60
2018-12-30T05:27:58.348Z,10.30
2018-12-30T05:28:55.776Z,9.90
2018-12-30T05:29:56.850Z,9.50
2018-12-30T05:30:55.364Z,9.50
2018-12-30T05:31:58.331Z,12.00
2018-12-30T05:32:55.710Z,12.00
2018-12-30T05:33:57.863Z,9.70
2018-12-30T05:34:57.812Z,9.50
2018-12-30T05:35:57.815Z,7.70
2018-12-30T05:37:04.333Z,9.90
2018-12-30T05:37:58.383Z,11.00
2018-12-30T05:38:56.713Z,11.10
2018-12-30T05:39:56.916Z,12.70
2018-12-30T05:41:00.805Z,11.30
2018-12-30T05:41:57.313Z,10.90
2018-12-30T05:42:59.318Z,11.70
2018-12-30T05:44:00.356Z,11.10
2018-12-30T05:45:13.312Z,11.10
2018-12-30T05:45:59.050Z,11.40
2018-12-30T05:46:58.247Z,10.30
2018-12-30T05:48:00.389Z,11.10
2018-12-30T05:48:58.608Z,11.20
2018-12-30T05:50:00.338Z,10.50
2018-12-30T05:50:58.954Z,12.10
2018-12-30T05:52:00.862Z,11.90
2018-12-30T05:53:02.814Z,10.80
2018-12-30T05:53:59.412Z,11.10
2018-12-30T05:55:01.319Z,11.70
2018-12-30T05:55:59.644Z,12.40
2018-12-30T05:57:02.787Z,10.70
2018-12-30T05:58:00.001Z,9.90
2018-12-30T05:59:01.832Z,10.00
2018-12-30T06:00:04.318Z,12.80
2018-12-30T06:01:00.534Z,11.20
2018-12-30T06:02:00.737Z,9.20
2018-12-30T06:03:02.814Z,14.60
2018-12-30T06:04:01.182Z,10.50
2018-12-30T06:05:02.212Z,12.10
2018-12-30T06:06:01.552Z,12.60
2018-12-30T06:07:01.766Z,13.90
2018-12-30T06:08:07.828Z,13.40
2018-12-30T06:09:02.159Z,13.10
2018-12-30T06:10:04.315Z,11.90
2018-12-30T06:11:05.346Z,13.30
2018-12-30T06:12:18.317Z,12.80
2018-12-30T06:13:02.874Z,11.70
2018-12-30T06:14:04.875Z,12.80
2018-12-30T06:15:04.781Z,14.60
2018-12-30T06:16:07.324Z,10.40
2018-12-30T06:17:05.368Z,12.60
2018-12-30T06:18:03.701Z,11.60
2018-12-30T06:19:05.867Z,11.40
2018-12-30T06:20:06.836Z,14.30
2018-12-30T06:21:04.185Z,11.30
2018-12-30T06:22:07.400Z,12.70
2018-12-30T06:23:06.358Z,10.90
2018-12-30T06:24:04.701Z,12.40
2018-12-30T06:25:06.817Z,11.00
2018-12-30T06:26:05.765Z,11.70
2018-12-30T06:27:06.825Z,14.20
2018-12-30T06:28:07.315Z,12.00
2018-12-30T06:29:07.316Z,10.10
2018-12-30T06:30:05.685Z,12.90
2018-12-30T06:31:21.276Z,11.70
2018-12-30T06:32:07.859Z,11.00
2018-12-30T06:33:07.242Z,13.60
2018-12-30T06:34:06.333Z,10.40
2018-12-30T06:35:08.345Z,10.90
2018-12-30T06:36:08.320Z,15.40
2018-12-30T06:37:08.829Z,12.10
2018-12-30T06:38:08.870Z,13.30
2018-12-30T06:39:10.816Z,14.20
2018-12-30T06:40:11.333Z,13.40
2018-12-30T06:41:09.314Z,11.30
2018-12-30T06:42:09.353Z,11.60
2018-12-30T06:43:09.813Z,13.10
2018-12-30T06:44:14.135Z,10.40
2018-12-30T06:45:08.347Z,12.50
2018-12-30T06:46:08.555Z,12.30
2018-12-30T06:47:12.335Z,11.80
2018-12-30T06:48:08.908Z,12.10
2018-12-30T06:49:10.826Z,11.10
2018-12-30T06:50:10.814Z,10.90
2018-12-30T06:51:09.387Z,14.50
2018-12-30T06:52:09.630Z,11.80
2018-12-30T06:53:09.830Z,12.00
2018-12-30T06:54:11.814Z,12.20
2018-12-30T06:55:11.288Z,10.60
2018-12-30T06:56:11.494Z,13.10
2018-12-30T06:57:18.318Z,12.10
2018-12-30T06:58:10.897Z,14.50
2018-12-30T06:59:12.824Z,11.10
2018-12-30T07:00:11.278Z,12.70
2018-12-30T07:01:11.482Z,13.10
2018-12-30T07:02:13.327Z,13.40
2018-12-30T07:03:12.788Z,12.00
2018-12-30T07:04:13.828Z,11.20
2018-12-30T07:05:13.815Z,10.90
2018-12-30T07:06:12.277Z,10.80
2018-12-30T07:07:20.361Z,12.20
2018-12-30T07:08:12.687Z,9.20
2018-12-30T07:09:14.857Z,11.90
2018-12-30T07:10:16.832Z,10.70
2018-12-30T07:11:14.289Z,13.20
2018-12-30T07:12:13.548Z,12.00
2018-12-30T07:13:13.611Z,10.70
2018-12-30T07:14:13.823Z,11.90
2018-12-30T07:15:17.854Z,14.10
2018-12-30T07:16:17.819Z,11.50
2018-12-30T07:17:15.814Z,12.30
2018-12-30T07:18:18.327Z,12.20
2018-12-30T07:19:14.568Z,12.80
2018-12-30T07:20:16.317Z,12.60
2018-12-30T07:21:14.966Z,13.00
2018-12-30T07:22:15.188Z,12.40
2018-12-30T07:23:15.397Z,10.90
2018-12-30T07:24:15.632Z,11.40
2018-12-30T07:25:15.839Z,12.00
2018-12-30T07:26:23.816Z,11.70
2018-12-30T07:27:16.273Z,11.60
2018-12-30T07:28:20.327Z,13.60
2018-12-30T07:29:18.373Z,12.70
2018-12-30T07:30:16.778Z,12.40
2018-12-30T07:31:18.833Z,11.20
2018-12-30T07:32:23.648Z,10.20
2018-12-30T07:33:18.822Z,13.80
2018-12-30T07:34:21.329Z,10.70
2018-12-30T07:35:19.346Z,11.00
2018-12-30T07:36:17.791Z,11.80
2018-12-30T07:37:23.826Z,12.00
2018-12-30T07:38:18.210Z,12.20
2018-12-30T07:39:18.270Z,11.50
2018-12-30T07:40:20.316Z,10.90
2018-12-30T07:41:18.666Z,9.00
2018-12-30T07:42:18.884Z,8.90
2018-12-30T07:43:20.864Z,12.10
2018-12-30T07:44:20.863Z,14.20
2018-12-30T07:45:19.530Z,10.90
2018-12-30T07:46:20.878Z,11.20
2018-12-30T07:47:20.972Z,14.00
2018-12-30T07:48:21.821Z,13.00
2018-12-30T07:49:20.432Z,11.90
2018-12-30T07:50:23.400Z,11.00
2018-12-30T07:51:22.328Z,12.40
2018-12-30T07:52:24.837Z,11.50
2018-12-30T07:53:22.837Z,11.20
2018-12-30T07:54:22.260Z,12.20
2018-12-30T07:55:22.491Z,10.30
2018-12-30T07:56:23.317Z,11.90
2018-12-30T07:57:21.808Z,10.80
2018-12-30T07:58:44.826Z,10.60
2018-12-30T07:59:22.121Z,11.80
2018-12-30T08:00:22.333Z,10.00
2018-12-30T08:01:22.540Z,10.70
2018-12-30T08:02:22.854Z,12.20
2018-12-30T08:03:24.827Z,9.10
2018-12-30T08:04:24.036Z,11.60
2018-12-30T08:05:23.246Z,10.10
2018-12-30T08:06:25.361Z,10.30
2018-12-30T08:07:25.321Z,11.70
2018-12-30T08:08:25.336Z,10.80
2018-12-30T08:09:24.954Z,11.70
2018-12-30T08:10:25.822Z,13.00
2018-12-30T08:11:24.280Z,11.10
2018-12-30T08:12:24.485Z,8.90
2018-12-30T08:13:24.687Z,9.10
2018-12-30T08:14:24.900Z,11.00
2018-12-30T08:15:40.817Z,10.00
2018-12-30T08:16:25.253Z,11.00
2018-12-30T08:17:27.318Z,9.00
2018-12-30T08:18:25.681Z,11.30
2018-12-30T08:19:28.359Z,11.10
2018-12-30T08:20:28.861Z,9.40
2018-12-30T08:21:26.060Z,9.90
2018-12-30T08:22:26.298Z,8.70
2018-12-30T08:23:28.332Z,9.50
2018-12-30T08:24:28.333Z,9.80
2018-12-30T08:25:26.675Z,7.60
2018-12-30T08:26:26.873Z,10.60
2018-12-30T08:27:27.080Z,11.20
2018-12-30T08:28:28.819Z,10.00
2018-12-30T08:29:27.405Z,9.70
2018-12-30T08:30:28.661Z,10.50
2018-12-30T08:31:29.317Z,8.90
2018-12-30T08:32:28.031Z,9.40
2018-12-30T08:33:28.251Z,12.80
2018-12-30T08:34:30.334Z,9.80
2018-12-30T08:35:30.401Z,10.60
2018-12-30T08:36:30.327Z,10.80
2018-12-30T08:37:28.938Z,9.90
2018-12-30T08:38:32.826Z,13.60
2018-12-30T08:39:30.821Z,10.40
2018-12-30T08:40:29.278Z,10.00
2018-12-30T08:41:31.359Z,10.60
2018-12-30T08:42:30.704Z,9.70
2018-12-30T08:43:31.827Z,10.40
2018-12-30T08:44:31.864Z,8.20
2018-12-30T08:45:31.822Z,9.10
2018-12-30T08:46:30.421Z,9.90
2018-12-30T08:47:32.331Z,9.00
2018-12-30T08:48:34.334Z,9.10
2018-12-30T08:49:30.788Z,10.30
2018-12-30T08:50:34.820Z,11.20
2018-12-30T08:51:34.820Z,10.40
2018-12-30T08:52:33.505Z,8.70
2018-12-30T08:53:33.361Z,9.60
2018-12-30T08:54:31.570Z,7.00
2018-12-30T08:55:31.779Z,14.20
2018-12-30T08:56:33.826Z,16.80
2018-12-30T08:57:33.817Z,9.70
2018-12-30T08:58:32.332Z,9.60
2018-12-30T08:59:36.318Z,10.60
2018-12-30T09:00:36.336Z,9.10
2018-12-30T09:01:32.709Z,9.70
2018-12-30T09:02:36.336Z,11.20
2018-12-30T09:03:32.925Z,8.80
2018-12-30T09:04:33.266Z,8.60
2018-12-30T09:05:33.337Z,8.60
2018-12-30T09:06:34.567Z,6.80
2018-12-30T09:07:37.325Z,7.90
2018-12-30T09:08:37.818Z,5.60
2018-12-30T09:09:35.828Z,7.70
2018-12-30T09:10:35.846Z,10.20
2018-12-30T09:11:34.322Z,8.90
2018-12-30T09:12:38.341Z,21.30
2018-12-30T09:13:37.333Z,9.40
2018-12-30T09:14:34.795Z,8.60
2018-12-30T09:15:38.834Z,8.80
2018-12-30T09:16:35.191Z,7.50
2018-12-30T09:17:35.407Z,5.90
2018-12-30T09:18:37.339Z,6.50
2018-12-30T09:19:35.785Z,7.50
2018-12-30T09:20:39.860Z,7.70
2018-12-30T09:21:41.854Z,7.60
2018-12-30T09:22:39.822Z,7.20
2018-12-30T09:23:37.425Z,7.60
2018-12-30T09:24:40.324Z,8.50
2018-12-30T09:25:37.918Z,7.50
2018-12-30T09:26:37.130Z,7.40
2018-12-30T09:27:39.331Z,7.30
2018-12-30T09:28:39.322Z,6.20
2018-12-30T09:29:40.336Z,6.00
2018-12-30T09:30:38.787Z,9.40
2018-12-30T09:31:39.827Z,7.00
2018-12-30T09:32:39.830Z,7.50
2018-12-30T09:33:38.272Z,7.30
2018-12-30T09:34:40.338Z,8.00
2018-12-30T09:35:38.677Z,10.10
2018-12-30T09:36:38.884Z,9.20
2018-12-30T09:37:40.875Z,7.10
2018-12-30T09:38:40.824Z,6.80
2018-12-30T09:39:39.403Z,7.30
2018-12-30T09:40:39.543Z,8.10
2018-12-30T09:41:46.336Z,8.60
2018-12-30T09:42:39.898Z,6.90
2018-12-30T09:43:41.826Z,7.40
2018-12-30T09:44:46.831Z,7.90
2018-12-30T09:45:40.407Z,6.20
2018-12-30T09:46:40.632Z,6.90
2018-12-30T09:47:41.760Z,6.40
2018-12-30T09:48:44.821Z,8.10
2018-12-30T09:49:48.845Z,6.90
2018-12-30T09:50:44.866Z,7.30
2018-12-30T09:51:42.826Z,6.50
2018-12-30T09:52:48.378Z,7.50
2018-12-30T09:53:45.197Z,6.50
2018-12-30T09:54:41.802Z,9.30
2018-12-30T09:55:41.987Z,7.00
2018-12-30T09:56:45.829Z,6.80
2018-12-30T09:57:44.338Z,6.10
2018-12-30T09:58:42.569Z,6.40
2018-12-30T09:59:46.325Z,6.60
2018-12-30T10:00:44.824Z,6.50
2018-12-30T10:01:44.821Z,7.00
2018-12-30T10:02:48.856Z,6.00
2018-12-30T10:03:43.332Z,6.60
2018-12-30T10:04:47.337Z,5.10
2018-12-30T10:05:44.547Z,5.90
2018-12-30T10:06:43.764Z,6.10
2018-12-30T10:07:43.887Z,7.00
2018-12-30T10:08:47.844Z,7.00
2018-12-30T10:09:45.822Z,7.00
2018-12-30T10:10:46.327Z,6.20
2018-12-30T10:11:46.320Z,7.20
2018-12-30T10:12:44.812Z,5.30
2018-12-30T10:13:44.905Z,6.00
2018-12-30T10:14:45.126Z,6.30
2018-12-30T10:15:46.837Z,7.00
2018-12-30T10:16:47.320Z,5.60
2018-12-30T10:17:46.659Z,6.80
2018-12-30T10:18:45.869Z,6.60
2018-12-30T10:19:48.112Z,7.30
2018-12-30T10:20:46.201Z,8.70
2018-12-30T10:21:46.401Z,10.90
2018-12-30T10:22:50.336Z,11.70
2018-12-30T10:23:52.869Z,14.80
2018-12-30T10:24:49.787Z,15.80
2018-12-30T10:25:47.139Z,7.00
2018-12-30T10:26:53.410Z,7.90
2018-12-30T10:27:47.562Z,6.90
2018-12-30T10:28:47.795Z,6.80
2018-12-30T10:29:48.000Z,8.80
2018-12-30T10:30:49.846Z,6.80
2018-12-30T10:31:49.822Z,5.60
2018-12-30T10:32:50.377Z,5.40
2018-12-30T10:33:48.741Z,6.90
2018-12-30T10:34:49.947Z,7.00
2018-12-30T10:35:51.750Z,5.70
2018-12-30T10:36:49.340Z,7.00
2018-12-30T10:37:49.556Z,8.10
2018-12-30T10:38:51.384Z,5.80
2018-12-30T10:39:49.916Z,5.60
2018-12-30T10:40:53.825Z,6.70
2018-12-30T10:41:51.819Z,7.60
2018-12-30T10:42:51.274Z,6.20
2018-12-30T10:43:51.634Z,5.80
2018-12-30T10:44:50.875Z,7.00
2018-12-30T10:45:50.982Z,6.90
2018-12-30T10:46:52.225Z,6.10
2018-12-30T10:47:53.351Z,5.00
2018-12-30T10:48:51.564Z,6.10
2018-12-30T10:49:53.322Z,4.80
2018-12-30T10:50:51.966Z,6.00
2018-12-30T10:51:52.158Z,6.10
2018-12-30T10:52:54.334Z,5.00
2018-12-30T10:54:00.503Z,5.90
2018-12-30T10:54:54.329Z,4.00
2018-12-30T10:55:53.910Z,5.20
2018-12-30T10:56:58.840Z,6.50
2018-12-30T10:57:54.832Z,6.10
2018-12-30T10:58:53.443Z,6.90
2018-12-30T10:59:55.323Z,5.70
2018-12-30T11:00:57.337Z,4.80
2018-12-30T11:01:53.911Z,7.20
2018-12-30T11:02:54.117Z,6.70
2018-12-30T11:03:55.848Z,8.60
2018-12-30T11:04:54.437Z,5.10
2018-12-30T11:05:55.658Z,6.00
2018-12-30T11:06:58.829Z,6.90
2018-12-30T11:07:55.105Z,5.00
2018-12-30T11:08:57.839Z,5.40
2018-12-30T11:09:57.322Z,5.00
2018-12-30T11:10:57.330Z,5.20
2018-12-30T11:11:57.339Z,5.30
2018-12-30T11:12:59.825Z,5.60
2018-12-30T11:13:58.839Z,4.00
2018-12-30T11:14:57.825Z,5.90
2018-12-30T11:15:56.422Z,7.50
2018-12-30T11:16:58.342Z,8.20
2018-12-30T11:17:58.326Z,7.20
2018-12-30T11:18:56.909Z,5.60
2018-12-30T11:19:58.538Z,5.00
2018-12-30T11:20:57.249Z,6.30
2018-12-30T11:21:57.449Z,6.20
2018-12-30T11:22:57.677Z,4.90
2018-12-30T11:23:58.797Z,6.00
2018-12-30T11:24:58.005Z,5.80
2018-12-30T11:25:59.836Z,5.80
2018-12-30T11:27:00.329Z,4.00
2018-12-30T11:27:58.582Z,7.10
2018-12-30T11:29:00.347Z,6.30
2018-12-30T11:29:58.808Z,6.60
2018-12-30T11:31:00.827Z,5.80
2018-12-30T11:31:59.160Z,5.10
2018-12-30T11:33:03.339Z,4.50
2018-12-30T11:33:59.596Z,6.20
2018-12-30T11:34:59.701Z,3.50
2018-12-30T11:35:59.912Z,5.20
2018-12-30T11:37:00.098Z,4.40
2018-12-30T11:38:01.827Z,6.70
2018-12-30T11:39:00.571Z,6.70
2018-12-30T11:40:00.676Z,4.30
2018-12-30T11:41:02.835Z,5.30
2018-12-30T11:42:04.834Z,4.40
2018-12-30T11:43:01.170Z,3.90
2018-12-30T11:44:03.327Z,5.80
2018-12-30T11:45:05.332Z,4.90
2018-12-30T11:46:01.667Z,5.50
2018-12-30T11:47:03.948Z,4.90
2018-12-30T11:48:03.848Z,4.60
2018-12-30T11:49:03.835Z,4.90
2018-12-30T11:50:02.299Z,3.80
2018-12-30T11:51:02.523Z,5.40
2018-12-30T11:52:02.731Z,4.10
2018-12-30T11:53:03.006Z,4.60
2018-12-30T11:54:03.069Z,5.60
2018-12-30T11:55:03.279Z,5.20
2018-12-30T11:56:03.480Z,4.70
2018-12-30T11:57:07.342Z,4.20
2018-12-30T11:58:03.816Z,4.50
2018-12-30T11:59:06.865Z,5.20
2018-12-30T12:00:04.167Z,5.70
2018-12-30T12:01:06.336Z,4.20
2018-12-30T12:02:06.329Z,6.00
2018-12-30T12:03:06.325Z,4.60
2018-12-30T12:04:04.790Z,3.90
2018-12-30T12:05:06.847Z,4.70
2018-12-30T12:06:05.167Z,4.10
2018-12-30T12:07:05.416Z,5.00
2018-12-30T12:08:05.641Z,4.10
2018-12-30T12:09:05.850Z,5.90
2018-12-30T12:10:06.075Z,5.70
2018-12-30T12:11:06.193Z,4.60
2018-12-30T12:12:08.329Z,3.90
2018-12-30T12:13:06.543Z,5.80
2018-12-30T12:14:06.759Z,5.50
2018-12-30T12:15:06.978Z,4.30
2018-12-30T12:16:07.180Z,6.40
2018-12-30T12:17:09.329Z,5.60
2018-12-30T12:18:07.548Z,5.70
2018-12-30T12:19:11.369Z,5.10
2018-12-30T12:20:09.833Z,5.40
2018-12-30T12:21:09.830Z,4.40
2018-12-30T12:22:09.828Z,5.80
2018-12-30T12:23:08.292Z,6.10
2018-12-30T12:24:08.540Z,4.50
2018-12-30T12:25:08.650Z,5.70
2018-12-30T12:26:08.864Z,4.90
2018-12-30T12:27:09.074Z,4.30
2018-12-30T12:28:09.288Z,5.60
2018-12-30T12:29:09.509Z,4.40
2018-12-30T12:30:11.353Z,4.70
2018-12-30T12:31:09.953Z,5.30
2018-12-30T12:32:10.168Z,4.60
2018-12-30T12:33:10.401Z,3.70
2018-12-30T12:34:10.498Z,5.80
2018-12-30T12:35:10.731Z,4.40
2018-12-30T12:36:10.929Z,4.80
2018-12-30T12:37:12.834Z,4.20
2018-12-30T12:38:11.304Z,5.00
2018-12-30T12:39:11.519Z,4.10
2018-12-30T12:40:11.738Z,4.50
2018-12-30T12:41:12.964Z,4.50
2018-12-30T12:42:12.189Z,5.90
2018-12-30T12:43:14.335Z,6.90
2018-12-30T12:44:14.337Z,5.10
2018-12-30T12:45:12.713Z,5.90
2018-12-30T12:46:14.837Z,4.80
2018-12-30T12:47:13.094Z,5.40
2018-12-30T12:48:13.208Z,4.60
2018-12-30T12:49:13.447Z,4.70
2018-12-30T12:50:16.109Z,3.20
2018-12-30T12:51:17.355Z,4.90
2018-12-30T12:52:14.024Z,4.00
2018-12-30T12:53:15.831Z,4.40
2018-12-30T12:54:14.294Z,4.10
2018-12-30T12:55:14.498Z,4.80
2018-12-30T12:56:14.718Z,5.70
2018-12-30T12:57:14.959Z,4.80
2018-12-30T12:58:15.170Z,3.50
2018-12-30T12:59:15.382Z,5.30
2018-12-30T13:00:17.335Z,4.50
2018-12-30T13:01:15.839Z,4.50
2018-12-30T13:02:15.940Z,4.30
2018-12-30T13:03:16.153Z,3.80
2018-12-30T13:04:16.361Z,5.10
2018-12-30T13:05:16.575Z,4.80
2018-12-30T13:06:19.342Z,3.50
2018-12-30T13:07:16.938Z,3.10
2018-12-30T13:08:17.181Z,3.50
2018-12-30T13:09:17.418Z,4.00
2018-12-30T13:10:19.368Z,4.50
2018-12-30T13:11:17.836Z,4.40